Columbus, Ohio
Traffic Map
Current Weather Conditions
Columbus, Ohio
Overcast Haze
Overcast
45°
Feels Like: 39°
Wind Chill: 39° Ceiling: 1200
Heat Index: 45° Visibility: 6mi
Dew Point: 42° Wind: 13mph
Humidity: 90% Direction: 230° (SW)
Pressure: 30.02in Gusts: 0mph
Raw Report DataKCMH 181751Z 23011KT 6SM BR BKN012 OVC018 07/06 A3002 RMK AO2 DZE1652 SLP169 P0000 60000 T00720056 10072 20044 58019
Traffic Incident Summary
Active as of:
Severity:
Category:
InformationThere was an issue retrieving the traffic information for this location. Please try a different location or try again shortly.
Advertisements